Main page
METAR-TAF:

METAR-TAF

Airports :

Oxford Airport

Oxford, England

latitude: 51-50-13N, longitude: 1-19-12W, elevation: 82 m

Current weather observation

The report was made 3 hours and 30 minutes ago, at 19:20 UTC
Wind 11 kt from the East, varying between East/Northeast and East/Southeast
Temperature 4°C
Humidity 100%
Pressure 999 hPa
Visibility: 5000 m
Broken clouds at a height of 800 ft
Overcast at a height of 1000 ft
mist

METAR: EGTK 211920Z 08011KT 060V120 5000 BR BKN008 OVC010 04/04 Q0999

Time: 22:50 (22:50 UTC)

Forecast

The report was made 5 hours and 50 minutes ago, at 17:00 UTC
Forecast valid from 21 at 18 UTC to 21 at 22 UTC
Wind 10 kt from the East
Visibility: 6000 m
Broken clouds at a height of 1000 ft
Temporary
from 21 at 18 UTC to 21 at 22 UTC
Visibility: 4000 m
Broken clouds at a height of 700 ft
mist

TAF: EGTK 211700Z 2118/2122 09010KT 6000 BKN010 TEMPO 2118/2122 4000 BR BKN007

Weather observations and forecasts of more than 4000 airports (METAR and TAF reports).

The available stations are represented by yellow and red dots on the map.

Hover mouse over dot to see the name of the station.

Then click to see weather observations and forecasts.

To change the map : click on the green buttons with a black cross to zoom in, on the green button with a dash to zoom out, or on the green arrows for adjacent maps.


METAR-TAF: